sensor_id;sensor_type;location;lat;lon;timestamp;P1;durP1;ratioP1;P2;durP2;ratioP2
54517;SDS011;40423;53.176;6.002;2022-10-28T00:01:04;12.85;;;8.68;;
54517;SDS011;40423;53.176;6.002;2022-10-28T00:03:32;16.35;;;10.63;;
54517;SDS011;40423;53.176;6.002;2022-10-28T00:06:04;14.90;;;9.27;;
54517;SDS011;40423;53.176;6.002;2022-10-28T00:08:32;19.10;;;9.73;;
54517;SDS011;40423;53.176;6.002;2022-10-28T00:11:18;17.30;;;10.18;;
54517;SDS011;40423;53.176;6.002;2022-10-28T00:13:46;16.90;;;10.35;;
54517;SDS011;40423;53.176;6.002;2022-10-28T00:16:17;19.52;;;10.70;;
54517;SDS011;40423;53.176;6.002;2022-10-28T00:18:45;18.92;;;11.25;;
54517;SDS011;40423;53.176;6.002;2022-10-28T00:21:12;16.83;;;10.15;;
54517;SDS011;40423;53.176;6.002;2022-10-28T00:23:43;16.15;;;10.57;;
54517;SDS011;40423;53.176;6.002;2022-10-28T00:26:13;14.95;;;9.15;;
54517;SDS011;40423;53.176;6.002;2022-10-28T00:28:41;16.42;;;10.13;;
54517;SDS011;40423;53.176;6.002;2022-10-28T00:31:09;15.75;;;10.75;;
54517;SDS011;40423;53.176;6.002;2022-10-28T00:33:36;16.63;;;11.38;;
54517;SDS011;40423;53.176;6.002;2022-10-28T00:36:06;16.75;;;10.05;;
54517;SDS011;40423;53.176;6.002;2022-10-28T00:38:46;18.63;;;10.00;;
54517;SDS011;40423;53.176;6.002;2022-10-28T00:41:16;18.02;;;10.75;;
54517;SDS011;40423;53.176;6.002;2022-10-28T00:43:51;20.25;;;10.13;;
54517;SDS011;40423;53.176;6.002;2022-10-28T00:48:50;18.70;;;11.27;;
54517;SDS011;40423;53.176;6.002;2022-10-28T00:51:20;16.48;;;10.88;;
54517;SDS011;40423;53.176;6.002;2022-10-28T00:53:47;16.98;;;11.15;;
54517;SDS011;40423;53.176;6.002;2022-10-28T00:56:16;18.80;;;11.00;;
54517;SDS011;40423;53.176;6.002;2022-10-28T00:58:42;16.98;;;10.43;;
54517;SDS011;40423;53.176;6.002;2022-10-28T01:01:10;16.38;;;11.00;;
54517;SDS011;40423;53.176;6.002;2022-10-28T01:03:35;21.40;;;11.32;;
54517;SDS011;40423;53.176;6.002;2022-10-28T01:06:01;18.85;;;11.10;;
54517;SDS011;40423;53.176;6.002;2022-10-28T01:08:28;21.05;;;12.25;;
54517;SDS011;40423;53.176;6.002;2022-10-28T01:16:21;20.85;;;11.60;;
54517;SDS011;40423;53.176;6.002;2022-10-28T01:36:53;18.33;;;11.75;;
54517;SDS011;40423;53.176;6.002;2022-10-28T01:39:31;19.10;;;10.93;;
54517;SDS011;40423;53.176;6.002;2022-10-28T01:45:14;19.02;;;11.20;;
54517;SDS011;40423;53.176;6.002;2022-10-28T01:47:50;15.18;;;10.82;;
54517;SDS011;40423;53.176;6.002;2022-10-28T01:52:53;18.23;;;11.55;;
54517;SDS011;40423;53.176;6.002;2022-10-28T01:55:24;23.77;;;13.40;;
54517;SDS011;40423;53.176;6.002;2022-10-28T01:57:53;18.83;;;12.02;;
54517;SDS011;40423;53.176;6.002;2022-10-28T02:00:20;15.85;;;11.18;;
54517;SDS011;40423;53.176;6.002;2022-10-28T02:02:46;20.90;;;13.10;;
54517;SDS011;40423;53.176;6.002;2022-10-28T02:08:14;16.20;;;10.98;;
54517;SDS011;40423;53.176;6.002;2022-10-28T02:16:21;19.80;;;11.30;;
54517;SDS011;40423;53.176;6.002;2022-10-28T02:21:27;21.27;;;11.93;;
54517;SDS011;40423;53.176;6.002;2022-10-28T02:24:18;18.60;;;10.85;;
54517;SDS011;40423;53.176;6.002;2022-10-28T02:27:50;19.75;;;12.27;;
54517;SDS011;40423;53.176;6.002;2022-10-28T02:29:56;23.48;;;11.38;;
54517;SDS011;40423;53.176;6.002;2022-10-28T02:32:31;19.98;;;11.18;;
54517;SDS011;40423;53.176;6.002;2022-10-28T02:35:05;17.55;;;11.43;;
54517;SDS011;40423;53.176;6.002;2022-10-28T02:37:35;15.55;;;9.70;;
54517;SDS011;40423;53.176;6.002;2022-10-28T02:40:05;17.05;;;11.40;;
54517;SDS011;40423;53.176;6.002;2022-10-28T02:42:36;17.20;;;11.70;;
54517;SDS011;40423;53.176;6.002;2022-10-28T02:45:34;22.48;;;13.25;;
54517;SDS011;40423;53.176;6.002;2022-10-28T02:48:06;17.60;;;11.70;;
54517;SDS011;40423;53.176;6.002;2022-10-28T02:50:39;18.98;;;12.00;;
54517;SDS011;40423;53.176;6.002;2022-10-28T02:53:21;17.17;;;11.95;;
54517;SDS011;40423;53.176;6.002;2022-10-28T02:55:54;17.85;;;12.05;;
54517;SDS011;40423;53.176;6.002;2022-10-28T02:58:22;22.00;;;11.77;;
54517;SDS011;40423;53.176;6.002;2022-10-28T03:00:49;18.13;;;11.68;;
54517;SDS011;40423;53.176;6.002;2022-10-28T03:03:15;18.38;;;11.68;;
54517;SDS011;40423;53.176;6.002;2022-10-28T03:05:41;22.98;;;12.15;;
54517;SDS011;40423;53.176;6.002;2022-10-28T03:08:06;20.15;;;12.15;;
54517;SDS011;40423;53.176;6.002;2022-10-28T03:10:32;21.02;;;12.40;;
54517;SDS011;40423;53.176;6.002;2022-10-28T03:12:58;19.40;;;11.88;;
54517;SDS011;40423;53.176;6.002;2022-10-28T03:15:23;21.63;;;14.25;;
54517;SDS011;40423;53.176;6.002;2022-10-28T03:17:49;24.98;;;13.35;;
54517;SDS011;40423;53.176;6.002;2022-10-28T03:20:15;22.55;;;12.45;;
54517;SDS011;40423;53.176;6.002;2022-10-28T03:22:43;21.27;;;12.02;;
54517;SDS011;40423;53.176;6.002;2022-10-28T03:25:09;20.02;;;12.93;;
54517;SDS011;40423;53.176;6.002;2022-10-28T03:27:37;19.92;;;12.02;;
54517;SDS011;40423;53.176;6.002;2022-10-28T03:30:05;21.45;;;12.75;;
54517;SDS011;40423;53.176;6.002;2022-10-28T03:32:31;16.83;;;11.48;;
54517;SDS011;40423;53.176;6.002;2022-10-28T03:34:56;18.40;;;12.10;;
54517;SDS011;40423;53.176;6.002;2022-10-28T03:37:22;17.08;;;11.32;;
54517;SDS011;40423;53.176;6.002;2022-10-28T03:39:47;20.83;;;12.00;;
54517;SDS011;40423;53.176;6.002;2022-10-28T03:42:13;20.92;;;12.70;;
54517;SDS011;40423;53.176;6.002;2022-10-28T03:44:39;20.88;;;13.05;;
54517;SDS011;40423;53.176;6.002;2022-10-28T03:47:04;20.27;;;12.10;;
54517;SDS011;40423;53.176;6.002;2022-10-28T03:49:30;23.40;;;12.30;;
54517;SDS011;40423;53.176;6.002;2022-10-28T03:51:56;18.83;;;12.98;;
54517;SDS011;40423;53.176;6.002;2022-10-28T03:54:21;21.98;;;13.05;;
54517;SDS011;40423;53.176;6.002;2022-10-28T03:56:47;21.35;;;12.55;;
54517;SDS011;40423;53.176;6.002;2022-10-28T03:59:13;15.23;;;12.23;;
54517;SDS011;40423;53.176;6.002;2022-10-28T04:01:38;21.02;;;14.23;;
54517;SDS011;40423;53.176;6.002;2022-10-28T04:04:04;17.80;;;12.32;;
54517;SDS011;40423;53.176;6.002;2022-10-28T04:06:30;19.98;;;12.60;;
54517;SDS011;40423;53.176;6.002;2022-10-28T04:08:56;21.05;;;13.15;;
54517;SDS011;40423;53.176;6.002;2022-10-28T04:11:21;21.65;;;13.50;;
54517;SDS011;40423;53.176;6.002;2022-10-28T04:13:47;16.65;;;12.95;;
54517;SDS011;40423;53.176;6.002;2022-10-28T04:16:13;22.25;;;13.60;;
54517;SDS011;40423;53.176;6.002;2022-10-28T04:18:39;21.83;;;13.88;;
54517;SDS011;40423;53.176;6.002;2022-10-28T04:21:04;22.05;;;13.13;;
54517;SDS011;40423;53.176;6.002;2022-10-28T04:23:30;18.95;;;11.68;;
54517;SDS011;40423;53.176;6.002;2022-10-28T04:25:55;24.23;;;14.05;;
54517;SDS011;40423;53.176;6.002;2022-10-28T04:28:21;21.25;;;11.60;;
54517;SDS011;40423;53.176;6.002;2022-10-28T04:30:48;22.73;;;13.38;;
54517;SDS011;40423;53.176;6.002;2022-10-28T04:33:14;19.27;;;12.25;;
54517;SDS011;40423;53.176;6.002;2022-10-28T04:35:40;21.40;;;13.77;;
54517;SDS011;40423;53.176;6.002;2022-10-28T04:38:09;23.02;;;13.90;;
54517;SDS011;40423;53.176;6.002;2022-10-28T04:40:35;20.70;;;13.00;;
54517;SDS011;40423;53.176;6.002;2022-10-28T04:43:01;23.88;;;12.93;;
54517;SDS011;40423;53.176;6.002;2022-10-28T04:45:27;23.88;;;15.73;;
54517;SDS011;40423;53.176;6.002;2022-10-28T04:48:01;23.38;;;13.20;;
54517;SDS011;40423;53.176;6.002;2022-10-28T04:50:27;21.20;;;13.63;;
54517;SDS011;40423;53.176;6.002;2022-10-28T04:52:53;22.77;;;13.52;;
54517;SDS011;40423;53.176;6.002;2022-10-28T04:55:19;21.05;;;14.52;;
54517;SDS011;40423;53.176;6.002;2022-10-28T04:57:55;21.10;;;13.63;;
54517;SDS011;40423;53.176;6.002;2022-10-28T05:00:22;19.30;;;13.10;;
54517;SDS011;40423;53.176;6.002;2022-10-28T05:02:48;30.13;;;15.80;;
54517;SDS011;40423;53.176;6.002;2022-10-28T05:05:14;26.65;;;14.82;;
54517;SDS011;40423;53.176;6.002;2022-10-28T05:07:40;24.98;;;13.85;;
54517;SDS011;40423;53.176;6.002;2022-10-28T05:10:06;23.77;;;15.10;;
54517;SDS011;40423;53.176;6.002;2022-10-28T05:12:32;19.88;;;12.68;;
54517;SDS011;40423;53.176;6.002;2022-10-28T05:14:57;19.45;;;13.57;;
54517;SDS011;40423;53.176;6.002;2022-10-28T05:17:23;21.98;;;12.93;;
54517;SDS011;40423;53.176;6.002;2022-10-28T05:19:49;25.90;;;14.38;;
54517;SDS011;40423;53.176;6.002;2022-10-28T05:22:14;26.52;;;14.98;;
54517;SDS011;40423;53.176;6.002;2022-10-28T05:24:40;24.52;;;15.07;;
54517;SDS011;40423;53.176;6.002;2022-10-28T05:27:06;24.08;;;14.88;;
54517;SDS011;40423;53.176;6.002;2022-10-28T05:29:31;23.55;;;13.68;;
54517;SDS011;40423;53.176;6.002;2022-10-28T05:31:57;25.00;;;15.18;;
54517;SDS011;40423;53.176;6.002;2022-10-28T05:34:23;29.13;;;15.27;;
54517;SDS011;40423;53.176;6.002;2022-10-28T05:36:49;25.67;;;15.25;;
54517;SDS011;40423;53.176;6.002;2022-10-28T05:39:15;23.58;;;14.15;;
54517;SDS011;40423;53.176;6.002;2022-10-28T05:41:41;26.40;;;15.15;;
54517;SDS011;40423;53.176;6.002;2022-10-28T05:44:07;26.75;;;14.77;;
54517;SDS011;40423;53.176;6.002;2022-10-28T05:46:33;20.98;;;14.32;;
54517;SDS011;40423;53.176;6.002;2022-10-28T05:48:58;25.40;;;13.60;;
54517;SDS011;40423;53.176;6.002;2022-10-28T05:51:24;27.25;;;14.10;;
54517;SDS011;40423;53.176;6.002;2022-10-28T05:53:50;24.30;;;14.95;;
54517;SDS011;40423;53.176;6.002;2022-10-28T05:56:16;23.15;;;14.25;;
54517;SDS011;40423;53.176;6.002;2022-10-28T05:58:42;25.02;;;14.77;;
54517;SDS011;40423;53.176;6.002;2022-10-28T06:01:08;22.15;;;14.52;;
54517;SDS011;40423;53.176;6.002;2022-10-28T06:03:33;25.20;;;15.40;;
54517;SDS011;40423;53.176;6.002;2022-10-28T06:05:59;27.00;;;15.07;;
54517;SDS011;40423;53.176;6.002;2022-10-28T06:08:25;23.05;;;14.40;;
54517;SDS011;40423;53.176;6.002;2022-10-28T06:10:52;24.50;;;14.43;;
54517;SDS011;40423;53.176;6.002;2022-10-28T06:13:18;23.92;;;14.30;;
54517;SDS011;40423;53.176;6.002;2022-10-28T06:15:49;21.02;;;14.65;;
54517;SDS011;40423;53.176;6.002;2022-10-28T06:18:21;23.92;;;14.70;;
54517;SDS011;40423;53.176;6.002;2022-10-28T06:20:52;24.80;;;13.73;;
54517;SDS011;40423;53.176;6.002;2022-10-28T06:23:21;26.20;;;12.57;;
54517;SDS011;40423;53.176;6.002;2022-10-28T06:25:48;23.15;;;14.50;;
54517;SDS011;40423;53.176;6.002;2022-10-28T06:28:14;24.48;;;14.63;;
54517;SDS011;40423;53.176;6.002;2022-10-28T06:30:40;21.98;;;14.90;;
54517;SDS011;40423;53.176;6.002;2022-10-28T06:33:05;23.65;;;13.30;;
54517;SDS011;40423;53.176;6.002;2022-10-28T06:35:31;22.05;;;13.63;;
54517;SDS011;40423;53.176;6.002;2022-10-28T06:37:57;19.50;;;13.02;;
54517;SDS011;40423;53.176;6.002;2022-10-28T06:40:23;20.70;;;13.05;;
54517;SDS011;40423;53.176;6.002;2022-10-28T06:42:56;17.83;;;12.95;;
54517;SDS011;40423;53.176;6.002;2022-10-28T06:45:23;24.80;;;14.10;;
54517;SDS011;40423;53.176;6.002;2022-10-28T06:47:48;22.83;;;12.70;;
54517;SDS011;40423;53.176;6.002;2022-10-28T06:50:18;20.77;;;11.75;;
54517;SDS011;40423;53.176;6.002;2022-10-28T06:52:44;29.92;;;13.38;;
54517;SDS011;40423;53.176;6.002;2022-10-28T06:55:09;19.23;;;12.30;;
54517;SDS011;40423;53.176;6.002;2022-10-28T06:57:35;21.95;;;14.30;;
54517;SDS011;40423;53.176;6.002;2022-10-28T07:00:01;22.27;;;13.20;;
54517;SDS011;40423;53.176;6.002;2022-10-28T07:02:27;22.73;;;12.98;;
54517;SDS011;40423;53.176;6.002;2022-10-28T07:04:52;25.77;;;13.57;;
54517;SDS011;40423;53.176;6.002;2022-10-28T07:07:18;20.73;;;12.90;;
54517;SDS011;40423;53.176;6.002;2022-10-28T07:09:44;20.88;;;12.00;;
54517;SDS011;40423;53.176;6.002;2022-10-28T07:12:10;21.33;;;13.20;;
54517;SDS011;40423;53.176;6.002;2022-10-28T07:14:35;19.88;;;11.68;;
54517;SDS011;40423;53.176;6.002;2022-10-28T07:17:01;20.42;;;11.45;;
54517;SDS011;40423;53.176;6.002;2022-10-28T07:19:27;21.73;;;12.48;;
54517;SDS011;40423;53.176;6.002;2022-10-28T07:21:52;24.05;;;12.93;;
54517;SDS011;40423;53.176;6.002;2022-10-28T07:24:18;21.15;;;11.15;;
54517;SDS011;40423;53.176;6.002;2022-10-28T07:26:46;22.98;;;11.30;;
54517;SDS011;40423;53.176;6.002;2022-10-28T07:29:13;17.48;;;11.05;;
54517;SDS011;40423;53.176;6.002;2022-10-28T07:31:39;18.58;;;10.65;;
54517;SDS011;40423;53.176;6.002;2022-10-28T07:34:05;18.65;;;10.95;;
54517;SDS011;40423;53.176;6.002;2022-10-28T07:36:30;23.10;;;10.45;;
54517;SDS011;40423;53.176;6.002;2022-10-28T07:38:56;15.77;;;10.00;;
54517;SDS011;40423;53.176;6.002;2022-10-28T07:41:22;16.73;;;9.32;;
54517;SDS011;40423;53.176;6.002;2022-10-28T07:43:48;16.10;;;9.10;;
54517;SDS011;40423;53.176;6.002;2022-10-28T07:46:14;20.08;;;9.85;;
54517;SDS011;40423;53.176;6.002;2022-10-28T07:48:40;16.75;;;9.57;;
54517;SDS011;40423;53.176;6.002;2022-10-28T07:51:06;14.57;;;8.70;;
54517;SDS011;40423;53.176;6.002;2022-10-28T07:53:34;20.40;;;8.93;;
54517;SDS011;40423;53.176;6.002;2022-10-28T07:56:04;19.77;;;10.73;;
54517;SDS011;40423;53.176;6.002;2022-10-28T07:58:33;23.30;;;9.85;;
54517;SDS011;40423;53.176;6.002;2022-10-28T08:01:01;12.70;;;8.80;;
54517;SDS011;40423;53.176;6.002;2022-10-28T08:03:28;20.63;;;10.23;;
54517;SDS011;40423;53.176;6.002;2022-10-28T08:06:00;18.48;;;9.60;;
54517;SDS011;40423;53.176;6.002;2022-10-28T08:08:32;15.90;;;9.43;;
54517;SDS011;40423;53.176;6.002;2022-10-28T08:10:57;16.42;;;9.43;;
54517;SDS011;40423;53.176;6.002;2022-10-28T08:13:23;18.88;;;9.55;;
54517;SDS011;40423;53.176;6.002;2022-10-28T08:15:55;20.27;;;9.90;;
54517;SDS011;40423;53.176;6.002;2022-10-28T08:18:21;19.83;;;9.38;;
54517;SDS011;40423;53.176;6.002;2022-10-28T08:20:47;16.73;;;9.27;;
54517;SDS011;40423;53.176;6.002;2022-10-28T08:23:13;14.80;;;9.13;;
54517;SDS011;40423;53.176;6.002;2022-10-28T08:25:46;17.33;;;9.32;;
54517;SDS011;40423;53.176;6.002;2022-10-28T08:28:15;23.75;;;9.43;;
54517;SDS011;40423;53.176;6.002;2022-10-28T08:30:41;16.45;;;9.48;;
54517;SDS011;40423;53.176;6.002;2022-10-28T08:33:08;14.65;;;8.02;;
54517;SDS011;40423;53.176;6.002;2022-10-28T08:35:33;19.58;;;9.02;;
54517;SDS011;40423;53.176;6.002;2022-10-28T08:38:02;18.95;;;9.35;;
54517;SDS011;40423;53.176;6.002;2022-10-28T08:40:33;15.82;;;7.93;;
54517;SDS011;40423;53.176;6.002;2022-10-28T08:45:59;19.15;;;8.65;;
54517;SDS011;40423;53.176;6.002;2022-10-28T08:48:35;14.55;;;8.07;;
54517;SDS011;40423;53.176;6.002;2022-10-28T08:53:34;18.15;;;8.38;;
54517;SDS011;40423;53.176;6.002;2022-10-28T08:56:47;18.25;;;8.45;;
54517;SDS011;40423;53.176;6.002;2022-10-28T08:58:57;13.90;;;7.93;;
54517;SDS011;40423;53.176;6.002;2022-10-28T09:01:30;14.13;;;7.82;;
54517;SDS011;40423;53.176;6.002;2022-10-28T09:04:04;12.77;;;7.80;;
54517;SDS011;40423;53.176;6.002;2022-10-28T09:06:40;11.50;;;7.63;;
54517;SDS011;40423;53.176;6.002;2022-10-28T09:09:08;20.00;;;8.35;;
54517;SDS011;40423;53.176;6.002;2022-10-28T09:17:25;19.73;;;8.57;;
54517;SDS011;40423;53.176;6.002;2022-10-28T09:20:03;17.27;;;7.40;;
54517;SDS011;40423;53.176;6.002;2022-10-28T09:25:35;17.48;;;8.10;;
54517;SDS011;40423;53.176;6.002;2022-10-28T09:30:59;17.83;;;8.48;;
54517;SDS011;40423;53.176;6.002;2022-10-28T09:34:18;18.80;;;8.15;;
54517;SDS011;40423;53.176;6.002;2022-10-28T09:36:22;13.18;;;8.13;;
54517;SDS011;40423;53.176;6.002;2022-10-28T09:38:53;18.00;;;9.25;;
54517;SDS011;40423;53.176;6.002;2022-10-28T09:41:26;17.27;;;8.68;;
54517;SDS011;40423;53.176;6.002;2022-10-28T09:44:16;19.48;;;8.40;;
54517;SDS011;40423;53.176;6.002;2022-10-28T09:47:02;18.77;;;8.35;;
54517;SDS011;40423;53.176;6.002;2022-10-28T09:49:36;16.52;;;7.95;;
54517;SDS011;40423;53.176;6.002;2022-10-28T09:52:08;19.13;;;9.25;;
54517;SDS011;40423;53.176;6.002;2022-10-28T09:54:41;18.55;;;8.70;;
54517;SDS011;40423;53.176;6.002;2022-10-28T09:57:12;14.52;;;8.60;;
54517;SDS011;40423;53.176;6.002;2022-10-28T09:59:38;16.63;;;8.40;;
54517;SDS011;40423;53.176;6.002;2022-10-28T10:02:03;18.50;;;8.45;;
54517;SDS011;40423;53.176;6.002;2022-10-28T10:04:29;18.30;;;8.55;;
54517;SDS011;40423;53.176;6.002;2022-10-28T10:06:56;18.30;;;7.88;;
54517;SDS011;40423;53.176;6.002;2022-10-28T10:09:35;15.07;;;8.00;;
54517;SDS011;40423;53.176;6.002;2022-10-28T10:12:09;21.55;;;8.20;;
54517;SDS011;40423;53.176;6.002;2022-10-28T10:17:03;14.68;;;7.88;;
54517;SDS011;40423;53.176;6.002;2022-10-28T10:22:40;17.08;;;9.15;;
54517;SDS011;40423;53.176;6.002;2022-10-28T10:27:42;16.00;;;7.28;;
54517;SDS011;40423;53.176;6.002;2022-10-28T10:30:24;13.15;;;7.75;;
54517;SDS011;40423;53.176;6.002;2022-10-28T10:33:15;17.10;;;7.35;;
54517;SDS011;40423;53.176;6.002;2022-10-28T10:35:53;18.10;;;8.43;;
54517;SDS011;40423;53.176;6.002;2022-10-28T10:38:21;14.05;;;7.75;;
54517;SDS011;40423;53.176;6.002;2022-10-28T10:40:48;24.83;;;7.60;;
54517;SDS011;40423;53.176;6.002;2022-10-28T10:45:59;17.98;;;7.72;;
54517;SDS011;40423;53.176;6.002;2022-10-28T10:48:25;17.63;;;8.68;;
54517;SDS011;40423;53.176;6.002;2022-10-28T10:50:51;18.42;;;8.05;;
54517;SDS011;40423;53.176;6.002;2022-10-28T10:55:53;17.10;;;8.52;;
54517;SDS011;40423;53.176;6.002;2022-10-28T10:58:27;18.27;;;8.38;;
54517;SDS011;40423;53.176;6.002;2022-10-28T11:01:02;13.45;;;7.20;;
54517;SDS011;40423;53.176;6.002;2022-10-28T11:06:20;14.68;;;7.90;;
54517;SDS011;40423;53.176;6.002;2022-10-28T11:08:55;15.27;;;6.40;;
54517;SDS011;40423;53.176;6.002;2022-10-28T11:11:37;18.60;;;7.35;;
54517;SDS011;40423;53.176;6.002;2022-10-28T11:19:14;22.95;;;8.00;;
54517;SDS011;40423;53.176;6.002;2022-10-28T11:29:34;12.48;;;6.65;;
54517;SDS011;40423;53.176;6.002;2022-10-28T11:32:11;12.75;;;5.97;;
54517;SDS011;40423;53.176;6.002;2022-10-28T11:37:34;15.30;;;6.80;;
54517;SDS011;40423;53.176;6.002;2022-10-28T11:43:09;14.65;;;7.80;;
54517;SDS011;40423;53.176;6.002;2022-10-28T11:46:32;14.95;;;6.57;;
54517;SDS011;40423;53.176;6.002;2022-10-28T11:51:50;13.40;;;6.43;;
54517;SDS011;40423;53.176;6.002;2022-10-28T11:54:43;13.40;;;6.68;;
54517;SDS011;40423;53.176;6.002;2022-10-28T12:03:19;16.35;;;7.63;;
54517;SDS011;40423;53.176;6.002;2022-10-28T12:09:09;21.55;;;7.20;;
54517;SDS011;40423;53.176;6.002;2022-10-28T12:14:25;13.15;;;6.03;;
54517;SDS011;40423;53.176;6.002;2022-10-28T12:17:19;17.02;;;7.10;;
54517;SDS011;40423;53.176;6.002;2022-10-28T12:20:30;24.65;;;8.88;;
54517;SDS011;40423;53.176;6.002;2022-10-28T12:25:16;12.85;;;6.57;;
54517;SDS011;40423;53.176;6.002;2022-10-28T12:27:48;16.35;;;7.00;;
54517;SDS011;40423;53.176;6.002;2022-10-28T12:30:31;23.98;;;7.00;;
54517;SDS011;40423;53.176;6.002;2022-10-28T12:33:02;18.63;;;6.68;;
54517;SDS011;40423;53.176;6.002;2022-10-28T12:35:34;13.77;;;6.82;;
54517;SDS011;40423;53.176;6.002;2022-10-28T12:38:26;13.90;;;6.35;;
54517;SDS011;40423;53.176;6.002;2022-10-28T12:41:05;24.52;;;8.00;;
54517;SDS011;40423;53.176;6.002;2022-10-28T12:44:01;16.95;;;6.50;;
54517;SDS011;40423;53.176;6.002;2022-10-28T12:46:49;19.35;;;7.15;;
54517;SDS011;40423;53.176;6.002;2022-10-28T12:49:46;13.77;;;6.13;;
54517;SDS011;40423;53.176;6.002;2022-10-28T12:57:56;13.95;;;6.55;;
54517;SDS011;40423;53.176;6.002;2022-10-28T13:00:30;15.98;;;7.30;;
54517;SDS011;40423;53.176;6.002;2022-10-28T13:03:06;11.73;;;6.30;;
54517;SDS011;40423;53.176;6.002;2022-10-28T13:16:33;20.25;;;7.68;;
54517;SDS011;40423;53.176;6.002;2022-10-28T13:22:24;14.77;;;6.65;;
54517;SDS011;40423;53.176;6.002;2022-10-28T13:27:44;18.83;;;8.02;;
54517;SDS011;40423;53.176;6.002;2022-10-28T13:30:17;18.90;;;7.90;;
54517;SDS011;40423;53.176;6.002;2022-10-28T13:32:45;18.52;;;7.20;;
54517;SDS011;40423;53.176;6.002;2022-10-28T13:35:25;14.80;;;7.65;;
54517;SDS011;40423;53.176;6.002;2022-10-28T13:37:52;16.23;;;7.50;;
54517;SDS011;40423;53.176;6.002;2022-10-28T13:43:14;18.50;;;8.18;;
54517;SDS011;40423;53.176;6.002;2022-10-28T13:51:58;17.42;;;7.47;;
54517;SDS011;40423;53.176;6.002;2022-10-28T13:56:25;17.17;;;6.68;;
54517;SDS011;40423;53.176;6.002;2022-10-28T14:04:23;19.20;;;7.40;;
54517;SDS011;40423;53.176;6.002;2022-10-28T14:07:05;22.08;;;7.18;;
54517;SDS011;40423;53.176;6.002;2022-10-28T14:09:44;17.58;;;7.43;;
54517;SDS011;40423;53.176;6.002;2022-10-28T14:12:26;18.00;;;6.50;;
54517;SDS011;40423;53.176;6.002;2022-10-28T14:14:58;18.95;;;7.55;;
54517;SDS011;40423;53.176;6.002;2022-10-28T14:17:55;20.00;;;7.25;;
54517;SDS011;40423;53.176;6.002;2022-10-28T14:20:39;18.73;;;7.20;;
54517;SDS011;40423;53.176;6.002;2022-10-28T14:50:20;18.58;;;7.80;;
54517;SDS011;40423;53.176;6.002;2022-10-28T14:52:49;19.48;;;7.63;;
54517;SDS011;40423;53.176;6.002;2022-10-28T14:55:31;16.83;;;7.15;;
54517;SDS011;40423;53.176;6.002;2022-10-28T14:58:11;19.52;;;7.45;;
54517;SDS011;40423;53.176;6.002;2022-10-28T15:00:59;15.48;;;6.82;;
54517;SDS011;40423;53.176;6.002;2022-10-28T15:03:37;17.15;;;6.90;;
54517;SDS011;40423;53.176;6.002;2022-10-28T15:11:14;16.48;;;6.90;;
54517;SDS011;40423;53.176;6.002;2022-10-28T15:13:41;19.95;;;7.40;;
54517;SDS011;40423;53.176;6.002;2022-10-28T15:16:17;23.00;;;7.32;;
54517;SDS011;40423;53.176;6.002;2022-10-28T15:18:47;16.88;;;8.02;;
54517;SDS011;40423;53.176;6.002;2022-10-28T15:21:15;16.10;;;7.28;;
54517;SDS011;40423;53.176;6.002;2022-10-28T15:23:42;21.65;;;7.50;;
54517;SDS011;40423;53.176;6.002;2022-10-28T15:26:10;12.38;;;6.78;;
54517;SDS011;40423;53.176;6.002;2022-10-28T15:28:42;19.33;;;7.40;;
54517;SDS011;40423;53.176;6.002;2022-10-28T15:31:08;17.42;;;7.43;;
54517;SDS011;40423;53.176;6.002;2022-10-28T15:33:38;18.15;;;7.10;;
54517;SDS011;40423;53.176;6.002;2022-10-28T15:36:06;18.13;;;6.22;;
54517;SDS011;40423;53.176;6.002;2022-10-28T15:41:46;19.30;;;6.50;;
54517;SDS011;40423;53.176;6.002;2022-10-28T15:47:01;16.02;;;6.93;;
54517;SDS011;40423;53.176;6.002;2022-10-28T15:49:39;20.05;;;6.68;;
54517;SDS011;40423;53.176;6.002;2022-10-28T15:57:21;17.35;;;6.15;;
54517;SDS011;40423;53.176;6.002;2022-10-28T16:02:48;18.70;;;6.50;;
54517;SDS011;40423;53.176;6.002;2022-10-28T16:07:57;18.27;;;6.47;;
54517;SDS011;40423;53.176;6.002;2022-10-28T16:10:24;17.20;;;6.72;;
54517;SDS011;40423;53.176;6.002;2022-10-28T16:12:54;18.80;;;7.28;;
54517;SDS011;40423;53.176;6.002;2022-10-28T16:15:20;16.27;;;6.57;;
54517;SDS011;40423;53.176;6.002;2022-10-28T16:17:46;17.50;;;6.10;;
54517;SDS011;40423;53.176;6.002;2022-10-28T16:20:13;16.95;;;5.38;;
54517;SDS011;40423;53.176;6.002;2022-10-28T16:22:41;18.17;;;7.68;;
54517;SDS011;40423;53.176;6.002;2022-10-28T16:25:15;18.30;;;5.93;;
54517;SDS011;40423;53.176;6.002;2022-10-28T16:27:44;16.95;;;6.45;;
54517;SDS011;40423;53.176;6.002;2022-10-28T16:30:09;16.27;;;6.75;;
54517;SDS011;40423;53.176;6.002;2022-10-28T16:32:46;14.02;;;5.90;;
54517;SDS011;40423;53.176;6.002;2022-10-28T16:35:14;20.65;;;7.53;;
54517;SDS011;40423;53.176;6.002;2022-10-28T16:37:40;19.95;;;6.55;;
54517;SDS011;40423;53.176;6.002;2022-10-28T16:40:07;25.23;;;6.97;;
54517;SDS011;40423;53.176;6.002;2022-10-28T16:42:33;18.58;;;7.22;;
54517;SDS011;40423;53.176;6.002;2022-10-28T16:45:01;25.95;;;7.25;;
54517;SDS011;40423;53.176;6.002;2022-10-28T16:47:27;21.50;;;7.22;;
54517;SDS011;40423;53.176;6.002;2022-10-28T16:49:53;19.15;;;6.93;;
54517;SDS011;40423;53.176;6.002;2022-10-28T16:52:20;23.88;;;8.43;;
54517;SDS011;40423;53.176;6.002;2022-10-28T16:54:48;18.10;;;6.97;;
54517;SDS011;40423;53.176;6.002;2022-10-28T16:57:15;17.98;;;7.13;;
54517;SDS011;40423;53.176;6.002;2022-10-28T16:59:41;14.82;;;6.22;;
54517;SDS011;40423;53.176;6.002;2022-10-28T17:02:14;16.60;;;6.55;;
54517;SDS011;40423;53.176;6.002;2022-10-28T17:04:46;20.45;;;6.68;;
54517;SDS011;40423;53.176;6.002;2022-10-28T17:07:12;17.17;;;6.25;;
54517;SDS011;40423;53.176;6.002;2022-10-28T17:09:40;20.25;;;6.45;;
54517;SDS011;40423;53.176;6.002;2022-10-28T17:12:08;18.55;;;7.05;;
54517;SDS011;40423;53.176;6.002;2022-10-28T17:14:40;24.30;;;7.55;;
54517;SDS011;40423;53.176;6.002;2022-10-28T17:17:06;22.45;;;7.00;;
54517;SDS011;40423;53.176;6.002;2022-10-28T17:19:32;20.15;;;6.95;;
54517;SDS011;40423;53.176;6.002;2022-10-28T17:21:58;21.38;;;6.75;;
54517;SDS011;40423;53.176;6.002;2022-10-28T17:24:24;20.23;;;5.88;;
54517;SDS011;40423;53.176;6.002;2022-10-28T17:26:50;19.60;;;6.75;;
54517;SDS011;40423;53.176;6.002;2022-10-28T17:29:16;26.23;;;7.45;;
54517;SDS011;40423;53.176;6.002;2022-10-28T17:31:42;26.52;;;7.07;;
54517;SDS011;40423;53.176;6.002;2022-10-28T17:34:11;21.92;;;7.28;;
54517;SDS011;40423;53.176;6.002;2022-10-28T17:36:36;28.77;;;7.78;;
54517;SDS011;40423;53.176;6.002;2022-10-28T17:39:03;23.85;;;6.72;;
54517;SDS011;40423;53.176;6.002;2022-10-28T17:41:29;23.88;;;8.27;;
54517;SDS011;40423;53.176;6.002;2022-10-28T17:43:54;22.15;;;6.72;;
54517;SDS011;40423;53.176;6.002;2022-10-28T17:46:20;16.92;;;7.20;;
54517;SDS011;40423;53.176;6.002;2022-10-28T17:48:46;30.05;;;8.02;;
54517;SDS011;40423;53.176;6.002;2022-10-28T17:51:12;26.85;;;7.38;;
54517;SDS011;40423;53.176;6.002;2022-10-28T17:53:38;27.92;;;8.52;;
54517;SDS011;40423;53.176;6.002;2022-10-28T17:56:05;30.33;;;8.75;;
54517;SDS011;40423;53.176;6.002;2022-10-28T17:58:31;19.67;;;8.65;;
54517;SDS011;40423;53.176;6.002;2022-10-28T18:03:24;22.73;;;7.65;;
54517;SDS011;40423;53.176;6.002;2022-10-28T18:05:51;19.40;;;7.50;;
54517;SDS011;40423;53.176;6.002;2022-10-28T18:08:16;25.10;;;7.38;;